Terminal Aerodrome Forecast
Issued by NWS Wakefield, VA

Home | Current Version | Previous Version | Text Only | Print | Product List | Glossary On
Versions: 1 2 3 4 5 6 7 8 9 10 11 12 13 14 15 16 17
000
FTUS41 KAKQ 291829 AAA
TAFECG
TAF AMD
KECG 291829Z 2918/3018 05011KT P6SM BKN025
      TEMPO 2918/2921 SCT025 OVC040
     FM292100 06010KT P6SM SCT030
     FM300200 06006KT P6SM SKC
     FM301500 06009KT P6SM SCT050=

USA.gov is the U.S. government's official web portal to all federal, state and local government web resources and services.